No particular awareness of the weather is required.    There are no Weather-warnings


Meteo18 Weather Cam more information Meteo18 Weather Cam


Thunder radar more information blitzortung!


Rain radar more information rain snow radar


Visit our other weather sites:

Template documentation
and downloads

And another site



Weather Underground History page Text

Daily Summary for November 29, 2017 Units:  Both    English   Metric
« Previous Day
Next Day »
Daily Weekly Monthly Yearly Custom
  High: Low: Average:
Temperature: TemperatureC °F /  -17.8 °C -0.2 °F /  -17.9 °C 2 °F /  -16.7 °C
Dew Point: DewpointC °F /  -17.8 °C -0.8 °F /  -18.2 °C 1.2 °F /  -17.1 °C
Humidity: Humidity % 91 % 94 %
Wind Speed: WindSpeedKMH mph /  0 km/h - 2.8 mph /  4.5 km/h
Wind Gust: WindSpeedGustKMH mph /  0 km/h - -
Wind:- - West
Pressure: PressurehPa in /  0 hPa 1008.4 in /  34144.4 hPa -
Precipitation: 0.5 in /  12.7 mm    
Historical Graphs
 
 
Tabular Data for November 29, 2017
Time Temperature Dew Point Pressure Wind Wind Speed Wind Gust Humidity Rainfall Rate (Hourly)
TemperatureC °F /  -17.8 °C DewpointC °F /  -17.8 °C PressurehPa in /  0 hPa Calm     Humidity % HourlyPrecipMM in /  0 mm
00:02 4.2 °F /  -15.4 °C 3.3 °F /  -15.9 °C 1009.0 in /  34164.7 hPa Calm   4.8 mph /  7.7 km/h 94 % 0.0 in /  0 mm
00:32 3.6 °F /  -15.8 °C 2.7 °F /  -16.3 °C 1009.0 in /  34164.7 hPa Calm   1.6 mph /  2.6 km/h 94 % 0.0 in /  0 mm
00:37 3.5 °F /  -15.8 °C 2.6 °F /  -16.3 °C 1009.0 in /  34164.7 hPa Calm   1.6 mph /  2.6 km/h 94 % 0.0 in /  0 mm
00:42 3.4 °F /  -15.9 °C 2.7 °F /  -16.3 °C 1009.0 in /  34164.7 hPa Calm     95 % 0.0 in /  0 mm
00:47 3.3 °F /  -15.9 °C 2.6 °F /  -16.3 °C 1009.0 in /  34164.7 hPa Calm   1.6 mph /  2.6 km/h 95 % 0.0 in /  0 mm
00:52 3.2 °F /  -16 °C 2.5 °F /  -16.4 °C 1009.0 in /  34164.7 hPa Calm   1.6 mph /  2.6 km/h 95 % 0.0 in /  0 mm
01:12 3.3 °F /  -15.9 °C 2.6 °F /  -16.3 °C 1008.7 in /  34154.6 hPa Calm   4.8 mph /  7.7 km/h 95 % 0.3 in /  7.62 mm
01:17 3.3 °F /  -15.9 °C 2.6 °F /  -16.3 °C 1009.0 in /  34164.7 hPa West 4.8 mph /  7.7 km/h 9.7 mph /  15.6 km/h 95 % 0.3 in /  7.62 mm
01:42 3.1 °F /  -16.1 °C 2.4 °F /  -16.4 °C 1008.7 in /  34154.6 hPa Calm   4.8 mph /  7.7 km/h 95 % 0.3 in /  7.62 mm
01:52 3.1 °F /  -16.1 °C 2.4 °F /  -16.4 °C 1008.7 in /  34154.6 hPa WNW 1.6 mph /  2.6 km/h 1.6 mph /  2.6 km/h 95 % 0.3 in /  7.62 mm
02:02 3.0 °F /  -16.1 °C 2.3 °F /  -16.5 °C 1008.7 in /  34154.6 hPa Calm   1.6 mph /  2.6 km/h 95 % 0.0 in /  0 mm
02:12 3.0 °F /  -16.1 °C 2.3 °F /  -16.5 °C 1008.7 in /  34154.6 hPa Calm   1.6 mph /  2.6 km/h 95 % 0.0 in /  0 mm
02:22 2.9 °F /  -16.2 °C 2.2 °F /  -16.6 °C 1008.7 in /  34154.6 hPa Calm     95 % 0.0 in /  0 mm
02:27 2.9 °F /  -16.2 °C 2.2 °F /  -16.6 °C 1008.7 in /  34154.6 hPa Calm   1.6 mph /  2.6 km/h 95 % 0.0 in /  0 mm
02:32 2.9 °F /  -16.2 °C 2.2 °F /  -16.6 °C 1008.7 in /  34154.6 hPa Calm   1.6 mph /  2.6 km/h 95 % 0.0 in /  0 mm
02:37 2.9 °F /  -16.2 °C 2.2 °F /  -16.6 °C 1008.7 in /  34154.6 hPa Calm   1.6 mph /  2.6 km/h 95 % 0.0 in /  0 mm
02:42 3.0 °F /  -16.1 °C 2.3 °F /  -16.5 °C 1008.7 in /  34154.6 hPa Calm   1.6 mph /  2.6 km/h 95 % 0.0 in /  0 mm
02:52 2.9 °F /  -16.2 °C 2.2 °F /  -16.6 °C 1008.7 in /  34154.6 hPa Calm   1.6 mph /  2.6 km/h 95 % 0.0 in /  0 mm
03:02 3.1 °F /  -16.1 °C 2.5 °F /  -16.4 °C 1008.7 in /  34154.6 hPa NW 1.6 mph /  2.6 km/h 3.2 mph /  5.1 km/h 96 % 0.0 in /  0 mm
03:12 3.0 °F /  -16.1 °C 2.3 °F /  -16.5 °C 1008.7 in /  34154.6 hPa WNW 1.6 mph /  2.6 km/h 3.2 mph /  5.1 km/h 95 % 0.0 in /  0 mm
03:17 3.0 °F /  -16.1 °C 2.3 °F /  -16.5 °C 1008.7 in /  34154.6 hPa WNW 1.6 mph /  2.6 km/h 3.2 mph /  5.1 km/h 95 % 0.0 in /  0 mm
03:22 2.9 °F /  -16.2 °C 2.2 °F /  -16.6 °C 1008.7 in /  34154.6 hPa NW 1.6 mph /  2.6 km/h 3.2 mph /  5.1 km/h 95 % 0.0 in /  0 mm
03:27 2.9 °F /  -16.2 °C 2.2 °F /  -16.6 °C 1008.7 in /  34154.6 hPa Calm   3.2 mph /  5.1 km/h 95 % 0.0 in /  0 mm
03:32 2.9 °F /  -16.2 °C 2.2 °F /  -16.6 °C 1008.7 in /  34154.6 hPa NW 3.2 mph /  5.1 km/h 3.2 mph /  5.1 km/h 95 % 0.0 in /  0 mm
03:42 3.1 °F /  -16.1 °C 2.4 °F /  -16.4 °C 1008.7 in /  34154.6 hPa Calm   6.4 mph /  10.3 km/h 95 % 0.0 in /  0 mm
03:47 3.1 °F /  -16.1 °C 2.4 °F /  -16.4 °C 1008.7 in /  34154.6 hPa Calm   6.4 mph /  10.3 km/h 95 % 0.0 in /  0 mm
04:02 3.1 °F /  -16.1 °C 2.4 °F /  -16.4 °C 1008.7 in /  34154.6 hPa NNW 3.2 mph /  5.1 km/h 4.8 mph /  7.7 km/h 95 % 0.0 in /  0 mm
04:22 2.8 °F /  -16.2 °C 2.1 °F /  -16.6 °C 1008.4 in /  34144.4 hPa North 3.2 mph /  5.1 km/h 6.4 mph /  10.3 km/h 95 % 0.0 in /  0 mm
04:32 2.7 °F /  -16.3 °C 2.0 °F /  -16.7 °C 1008.4 in /  34144.4 hPa NNW 3.2 mph /  5.1 km/h 4.8 mph /  7.7 km/h 95 % 0.0 in /  0 mm
04:37 2.6 °F /  -16.3 °C 1.9 °F /  -16.7 °C 1008.4 in /  34144.4 hPa North 3.2 mph /  5.1 km/h 4.8 mph /  7.7 km/h 95 % 0.0 in /  0 mm
04:42 2.5 °F /  -16.4 °C 1.8 °F /  -16.8 °C 1008.4 in /  34144.4 hPa West 4.8 mph /  7.7 km/h 4.8 mph /  7.7 km/h 95 % 0.0 in /  0 mm
04:47 2.4 °F /  -16.4 °C 1.7 °F /  -16.8 °C 1008.4 in /  34144.4 hPa NW 1.6 mph /  2.6 km/h 6.4 mph /  10.3 km/h 95 % 0.0 in /  0 mm
04:52 2.3 °F /  -16.5 °C 1.6 °F /  -16.9 °C 1008.4 in /  34144.4 hPa NW 1.6 mph /  2.6 km/h 6.4 mph /  10.3 km/h 95 % 0.0 in /  0 mm
05:02 1.9 °F /  -16.7 °C 1.2 °F /  -17.1 °C 1008.4 in /  34144.4 hPa NNW 1.6 mph /  2.6 km/h 6.4 mph /  10.3 km/h 95 % 0.0 in /  0 mm
05:07 1.9 °F /  -16.7 °C 1.2 °F /  -17.1 °C 1008.4 in /  34144.4 hPa NW 3.2 mph /  5.1 km/h 4.8 mph /  7.7 km/h 95 % 0.0 in /  0 mm
05:12 1.8 °F /  -16.8 °C 1.1 °F /  -17.2 °C 1008.4 in /  34144.4 hPa NW 3.2 mph /  5.1 km/h 4.8 mph /  7.7 km/h 95 % 0.0 in /  0 mm
05:22 1.8 °F /  -16.8 °C 1.1 °F /  -17.2 °C 1008.4 in /  34144.4 hPa Calm   4.8 mph /  7.7 km/h 95 % 0.0 in /  0 mm
05:32 1.3 °F /  -17.1 °C 0.6 °F /  -17.4 °C 1008.4 in /  34144.4 hPa Calm   4.8 mph /  7.7 km/h 95 % 0.0 in /  0 mm
05:42 1.1 °F /  -17.2 °C 0.5 °F /  -17.5 °C 1008.7 in /  34154.6 hPa NNW 1.6 mph /  2.6 km/h 3.2 mph /  5.1 km/h 96 % 0.0 in /  0 mm
05:52 1.2 °F /  -17.1 °C 0.6 °F /  -17.4 °C 1008.7 in /  34154.6 hPa North 1.6 mph /  2.6 km/h 4.8 mph /  7.7 km/h 96 % 0.0 in /  0 mm
06:02 0.9 °F /  -17.3 °C 0.2 °F /  -17.7 °C 1008.7 in /  34154.6 hPa WNW 1.6 mph /  2.6 km/h 4.8 mph /  7.7 km/h 95 % 0.0 in /  0 mm
06:12 0.6 °F /  -17.4 °C -0.1 °F /  -17.8 °C 1008.7 in /  34154.6 hPa Calm   4.8 mph /  7.7 km/h 95 % 0.0 in /  0 mm
06:32 0.6 °F /  -17.4 °C 0.0 °F /  -17.8 °C 1008.7 in /  34154.6 hPa North 1.6 mph /  2.6 km/h 4.8 mph /  7.7 km/h 96 % 0.0 in /  0 mm
06:42 0.6 °F /  -17.4 °C 0.0 °F /  -17.8 °C 1008.7 in /  34154.6 hPa Calm   3.2 mph /  5.1 km/h 96 % 0.0 in /  0 mm
06:57 0.7 °F /  -17.4 °C 0.1 °F /  -17.7 °C 1008.4 in /  34144.4 hPa Calm   1.6 mph /  2.6 km/h 96 % 0.0 in /  0 mm
07:02 0.7 °F /  -17.4 °C 0.1 °F /  -17.7 °C 1008.7 in /  34154.6 hPa Calm   1.6 mph /  2.6 km/h 96 % 0.0 in /  0 mm
07:12 0.6 °F /  -17.4 °C 0.0 °F /  -17.8 °C 1008.7 in /  34154.6 hPa Calm   1.6 mph /  2.6 km/h 96 % 0.0 in /  0 mm
07:32 0.6 °F /  -17.4 °C 0.0 °F /  -17.8 °C 1008.7 in /  34154.6 hPa Calm     96 % 0.0 in /  0 mm
07:37 0.6 °F /  -17.4 °C 0.0 °F /  -17.8 °C 1008.7 in /  34154.6 hPa Calm     96 % 0.0 in /  0 mm
07:42 0.6 °F /  -17.4 °C 0.2 °F /  -17.7 °C 1009.0 in /  34164.7 hPa Calm     97 % 0.0 in /  0 mm
07:47 0.6 °F /  -17.4 °C 0.0 °F /  -17.8 °C 1009.0 in /  34164.7 hPa Calm   1.6 mph /  2.6 km/h 96 % 0.0 in /  0 mm
08:02 0.6 °F /  -17.4 °C 0.0 °F /  -17.8 °C 1009.0 in /  34164.7 hPa Calm   1.6 mph /  2.6 km/h 96 % 0.0 in /  0 mm
08:07 0.5 °F /  -17.5 °C -0.1 °F /  -17.8 °C 1009.0 in /  34164.7 hPa Calm   1.6 mph /  2.6 km/h 96 % 0.0 in /  0 mm
08:12 0.5 °F /  -17.5 °C -0.1 °F /  -17.8 °C 1009.0 in /  34164.7 hPa Calm   1.6 mph /  2.6 km/h 96 % 0.0 in /  0 mm
08:27 0.5 °F /  -17.5 °C 0.1 °F /  -17.7 °C 1009.4 in /  34178.3 hPa Calm     97 % 0.0 in /  0 mm
08:32 0.6 °F /  -17.4 °C 0.2 °F /  -17.7 °C 1009.4 in /  34178.3 hPa Calm     97 % 0.0 in /  0 mm
08:37 0.6 °F /  -17.4 °C 0.2 °F /  -17.7 °C 1009.4 in /  34178.3 hPa SE 1.6 mph /  2.6 km/h   97 % 0.0 in /  0 mm
08:42 0.6 °F /  -17.4 °C 0.2 °F /  -17.7 °C 1009.4 in /  34178.3 hPa Calm     97 % 0.0 in /  0 mm
08:52 0.6 °F /  -17.4 °C 0.2 °F /  -17.7 °C 1009.4 in /  34178.3 hPa Calm   1.6 mph /  2.6 km/h 97 % 0.0 in /  0 mm
09:02 0.6 °F /  -17.4 °C 0.2 °F /  -17.7 °C 1009.4 in /  34178.3 hPa Calm   1.6 mph /  2.6 km/h 97 % 0.0 in /  0 mm
09:07 0.7 °F /  -17.4 °C 0.3 °F /  -17.6 °C 1009.7 in /  34188.4 hPa SSW 1.6 mph /  2.6 km/h   97 % 0.0 in /  0 mm
09:12 0.6 °F /  -17.4 °C 0.2 °F /  -17.7 °C 1009.7 in /  34188.4 hPa Calm     97 % 0.0 in /  0 mm
09:17 0.6 °F /  -17.4 °C 0.2 °F /  -17.7 °C 1009.7 in /  34188.4 hPa Calm   1.6 mph /  2.6 km/h 97 % 0.0 in /  0 mm
09:22 0.6 °F /  -17.4 °C 0.0 °F /  -17.8 °C 1009.7 in /  34188.4 hPa Calm   1.6 mph /  2.6 km/h 96 % 0.0 in /  0 mm
09:42 0.4 °F /  -17.6 °C 0.0 °F /  -17.8 °C 1009.7 in /  34188.4 hPa WSW 3.2 mph /  5.1 km/h 3.2 mph /  5.1 km/h 97 % 0.0 in /  0 mm
09:47 0.4 °F /  -17.6 °C 0.0 °F /  -17.8 °C 1009.7 in /  34188.4 hPa West 1.6 mph /  2.6 km/h 4.8 mph /  7.7 km/h 97 % 0.0 in /  0 mm
09:52 0.3 °F /  -17.6 °C -0.3 °F /  -17.9 °C 1009.7 in /  34188.4 hPa Calm   4.8 mph /  7.7 km/h 96 % 0.0 in /  0 mm
10:02 0.3 °F /  -17.6 °C -0.1 °F /  -17.8 °C 1009.7 in /  34188.4 hPa SW 1.6 mph /  2.6 km/h 4.8 mph /  7.7 km/h 97 % 0.0 in /  0 mm
10:12 0.2 °F /  -17.7 °C -0.4 °F /  -18 °C 1010.0 in /  34198.6 hPa Calm   3.2 mph /  5.1 km/h 96 % 0.0 in /  0 mm
10:32 0.1 °F /  -17.7 °C -0.5 °F /  -18.1 °C 1010.0 in /  34198.6 hPa SSW 1.6 mph /  2.6 km/h 3.2 mph /  5.1 km/h 96 % 0.0 in /  0 mm
10:37 -0.1 °F /  -17.8 °C -0.7 °F /  -18.2 °C 1010.0 in /  34198.6 hPa SSW 3.2 mph /  5.1 km/h 4.8 mph /  7.7 km/h 96 % 0.0 in /  0 mm
10:42 -0.1 °F /  -17.8 °C -0.7 °F /  -18.2 °C 1010.0 in /  34198.6 hPa SW 4.8 mph /  7.7 km/h 4.8 mph /  7.7 km/h 96 % 0.0 in /  0 mm
10:57 -0.2 °F /  -17.9 °C -0.8 °F /  -18.2 °C 1010.0 in /  34198.6 hPa SW 6.4 mph /  10.3 km/h 8.0 mph /  12.9 km/h 96 % 0.0 in /  0 mm
11:02 -0.2 °F /  -17.9 °C -0.6 °F /  -18.1 °C 1010.0 in /  34198.6 hPa WSW 1.6 mph /  2.6 km/h 8.0 mph /  12.9 km/h 97 % 0.0 in /  0 mm
11:12 -0.1 °F /  -17.8 °C -0.5 °F /  -18.1 °C 1010.0 in /  34198.6 hPa WSW 1.6 mph /  2.6 km/h 8.0 mph /  12.9 km/h 97 % 0.0 in /  0 mm
11:17 0.1 °F /  -17.7 °C -0.3 °F /  -17.9 °C 1010.0 in /  34198.6 hPa SSW 3.2 mph /  5.1 km/h 9.7 mph /  15.6 km/h 97 % 0.0 in /  0 mm
11:22 0.2 °F /  -17.7 °C -0.2 °F /  -17.9 °C 1010.0 in /  34198.6 hPa Calm   9.7 mph /  15.6 km/h 97 % 0.0 in /  0 mm
11:27 0.3 °F /  -17.6 °C -0.1 °F /  -17.8 °C 1010.0 in /  34198.6 hPa WSW 1.6 mph /  2.6 km/h 6.4 mph /  10.3 km/h 97 % 0.0 in /  0 mm
11:42 0.7 °F /  -17.4 °C 0.3 °F /  -17.6 °C 1010.0 in /  34198.6 hPa WSW 1.6 mph /  2.6 km/h 6.4 mph /  10.3 km/h 97 % 0.0 in /  0 mm
11:52 0.8 °F /  -17.3 °C 0.4 °F /  -17.6 °C 1010.0 in /  34198.6 hPa WSW 6.4 mph /  10.3 km/h 6.4 mph /  10.3 km/h 97 % 0.0 in /  0 mm
12:02 0.8 °F /  -17.3 °C 0.4 °F /  -17.6 °C 1010.0 in /  34198.6 hPa SW 1.6 mph /  2.6 km/h 8.0 mph /  12.9 km/h 97 % 0.0 in /  0 mm
12:17 0.9 °F /  -17.3 °C 0.5 °F /  -17.5 °C 1009.7 in /  34188.4 hPa WSW 3.2 mph /  5.1 km/h 8.0 mph /  12.9 km/h 97 % 0.0 in /  0 mm
12:27 1.2 °F /  -17.1 °C 0.8 °F /  -17.3 °C 1009.7 in /  34188.4 hPa SW 6.4 mph /  10.3 km/h 6.4 mph /  10.3 km/h 97 % 0.0 in /  0 mm
12:32 1.2 °F /  -17.1 °C 0.8 °F /  -17.3 °C 1009.7 in /  34188.4 hPa SW 6.4 mph /  10.3 km/h 6.4 mph /  10.3 km/h 97 % 0.0 in /  0 mm
12:37 1.2 °F /  -17.1 °C 0.8 °F /  -17.3 °C 1009.7 in /  34188.4 hPa SSW 1.6 mph /  2.6 km/h 9.7 mph /  15.6 km/h 97 % 0.0 in /  0 mm
12:42 1.3 °F /  -17.1 °C 0.9 °F /  -17.3 °C 1009.7 in /  34188.4 hPa WSW 4.8 mph /  7.7 km/h 9.7 mph /  15.6 km/h 97 % 0.0 in /  0 mm
12:57 1.6 °F /  -16.9 °C 1.2 °F /  -17.1 °C 1009.7 in /  34188.4 hPa SW 9.7 mph /  15.6 km/h 9.7 mph /  15.6 km/h 97 % 0.0 in /  0 mm
13:12 1.8 °F /  -16.8 °C 1.4 °F /  -17 °C 1009.7 in /  34188.4 hPa WSW 1.6 mph /  2.6 km/h 9.7 mph /  15.6 km/h 97 % 0.0 in /  0 mm
13:17 1.7 °F /  -16.8 °C 1.3 °F /  -17.1 °C 1009.4 in /  34178.3 hPa West 4.8 mph /  7.7 km/h 9.7 mph /  15.6 km/h 97 % 0.0 in /  0 mm
13:22 1.8 °F /  -16.8 °C 1.4 °F /  -17 °C 1009.4 in /  34178.3 hPa West 4.8 mph /  7.7 km/h 9.7 mph /  15.6 km/h 97 % 0.0 in /  0 mm
13:32 2.0 °F /  -16.7 °C 1.6 °F /  -16.9 °C 1009.4 in /  34178.3 hPa WSW 1.6 mph /  2.6 km/h 11.3 mph /  18.2 km/h 97 % 0.0 in /  0 mm
13:52 2.2 °F /  -16.6 °C 1.8 °F /  -16.8 °C 1009.4 in /  34178.3 hPa WSW 3.2 mph /  5.1 km/h 11.3 mph /  18.2 km/h 97 % 0.0 in /  0 mm
14:12 2.5 °F /  -16.4 °C 2.1 °F /  -16.6 °C 1009.4 in /  34178.3 hPa SW 4.8 mph /  7.7 km/h 11.3 mph /  18.2 km/h 97 % 0.0 in /  0 mm
14:32 2.7 °F /  -16.3 °C 2.0 °F /  -16.7 °C 1009.4 in /  34178.3 hPa West 11.3 mph /  18.2 km/h 12.9 mph /  20.8 km/h 95 % 0.0 in /  0 mm
14:42 2.8 °F /  -16.2 °C 1.9 °F /  -16.7 °C 1009.4 in /  34178.3 hPa WNW 1.6 mph /  2.6 km/h 12.9 mph /  20.8 km/h 94 % 0.0 in /  0 mm
14:47 2.9 °F /  -16.2 °C 1.9 °F /  -16.7 °C 1009.4 in /  34178.3 hPa WSW 9.7 mph /  15.6 km/h 12.9 mph /  20.8 km/h 93 % 0.0 in /  0 mm
14:52 3.2 °F /  -16 °C 2.2 °F /  -16.6 °C 1009.4 in /  34178.3 hPa West 3.2 mph /  5.1 km/h 12.9 mph /  20.8 km/h 93 % 0.0 in /  0 mm
15:02 3.3 °F /  -15.9 °C 2.1 °F /  -16.6 °C 1009.4 in /  34178.3 hPa West 8.0 mph /  12.9 km/h 11.3 mph /  18.2 km/h 92 % 0.0 in /  0 mm
15:12 3.3 °F /  -15.9 °C 2.0 °F /  -16.7 °C 1009.4 in /  34178.3 hPa West 1.6 mph /  2.6 km/h 11.3 mph /  18.2 km/h 91 % 0.0 in /  0 mm
15:17 3.3 °F /  -15.9 °C 2.1 °F /  -16.6 °C 1009.4 in /  34178.3 hPa WSW 3.2 mph /  5.1 km/h 11.3 mph /  18.2 km/h 92 % 0.0 in /  0 mm
15:22 3.3 °F /  -15.9 °C 2.1 °F /  -16.6 °C 1009.4 in /  34178.3 hPa WNW 4.8 mph /  7.7 km/h 11.3 mph /  18.2 km/h 92 % 0.0 in /  0 mm
15:32 3.0 °F /  -16.1 °C 1.8 °F /  -16.8 °C 1009.4 in /  34178.3 hPa West 8.0 mph /  12.9 km/h 9.7 mph /  15.6 km/h 92 % 0.0 in /  0 mm
15:37 2.9 °F /  -16.2 °C 1.7 °F /  -16.8 °C 1009.4 in /  34178.3 hPa SW 4.8 mph /  7.7 km/h 11.3 mph /  18.2 km/h 92 % 0.0 in /  0 mm
15:42 2.9 °F /  -16.2 °C 1.7 °F /  -16.8 °C 1009.4 in /  34178.3 hPa West 4.8 mph /  7.7 km/h 11.3 mph /  18.2 km/h 92 % 0.0 in /  0 mm
15:52 2.9 °F /  -16.2 °C 1.9 °F /  -16.7 °C 1009.4 in /  34178.3 hPa WSW 1.6 mph /  2.6 km/h 11.3 mph /  18.2 km/h 93 % 0.0 in /  0 mm
16:07 2.8 °F /  -16.2 °C 1.8 °F /  -16.8 °C 1009.4 in /  34178.3 hPa West 6.4 mph /  10.3 km/h 9.7 mph /  15.6 km/h 93 % 0.0 in /  0 mm
16:12 2.8 °F /  -16.2 °C 1.8 °F /  -16.8 °C 1009.4 in /  34178.3 hPa WSW 3.2 mph /  5.1 km/h 9.7 mph /  15.6 km/h 93 % 0.0 in /  0 mm
16:17 2.7 °F /  -16.3 °C 1.7 °F /  -16.8 °C 1009.4 in /  34178.3 hPa SW 3.2 mph /  5.1 km/h 9.7 mph /  15.6 km/h 93 % 0.0 in /  0 mm
16:22 2.7 °F /  -16.3 °C 1.7 °F /  -16.8 °C 1009.4 in /  34178.3 hPa West 4.8 mph /  7.7 km/h 9.7 mph /  15.6 km/h 93 % 0.0 in /  0 mm
16:27 2.6 °F /  -16.3 °C 1.6 °F /  -16.9 °C 1009.4 in /  34178.3 hPa West 4.8 mph /  7.7 km/h 11.3 mph /  18.2 km/h 93 % 0.0 in /  0 mm
16:32 2.6 °F /  -16.3 °C 1.6 °F /  -16.9 °C 1009.4 in /  34178.3 hPa WSW 4.8 mph /  7.7 km/h 11.3 mph /  18.2 km/h 93 % 0.0 in /  0 mm
16:42 2.6 °F /  -16.3 °C 1.6 °F /  -16.9 °C 1009.4 in /  34178.3 hPa WSW 9.7 mph /  15.6 km/h 12.9 mph /  20.8 km/h 93 % 0.0 in /  0 mm
17:02 2.4 °F /  -16.4 °C 1.4 °F /  -17 °C 1009.4 in /  34178.3 hPa West 8.0 mph /  12.9 km/h 12.9 mph /  20.8 km/h 93 % 0.0 in /  0 mm
17:17 2.3 °F /  -16.5 °C 1.3 °F /  -17.1 °C 1009.7 in /  34188.4 hPa West 4.8 mph /  7.7 km/h 12.9 mph /  20.8 km/h 93 % 0.0 in /  0 mm
17:22 2.3 °F /  -16.5 °C 1.3 °F /  -17.1 °C 1009.7 in /  34188.4 hPa WNW 4.8 mph /  7.7 km/h 12.9 mph /  20.8 km/h 93 % 0.0 in /  0 mm
17:27 2.2 °F /  -16.6 °C 1.2 °F /  -17.1 °C 1009.7 in /  34188.4 hPa West 4.8 mph /  7.7 km/h 14.5 mph /  23.3 km/h 93 % 0.0 in /  0 mm
17:32 2.2 °F /  -16.6 °C 1.2 °F /  -17.1 °C 1009.7 in /  34188.4 hPa West 8.0 mph /  12.9 km/h 14.5 mph /  23.3 km/h 93 % 0.0 in /  0 mm
17:52 2.1 °F /  -16.6 °C 1.2 °F /  -17.1 °C 1010.0 in /  34198.6 hPa WNW 3.2 mph /  5.1 km/h 12.9 mph /  20.8 km/h 94 % 0.0 in /  0 mm
18:02 2.0 °F /  -16.7 °C 1.1 °F /  -17.2 °C 1010.0 in /  34198.6 hPa West 6.4 mph /  10.3 km/h 11.3 mph /  18.2 km/h 94 % 0.0 in /  0 mm
18:07 2.1 °F /  -16.6 °C 1.2 °F /  -17.1 °C 1010.0 in /  34198.6 hPa WSW 3.2 mph /  5.1 km/h 9.7 mph /  15.6 km/h 94 % 0.0 in /  0 mm
18:17 2.1 °F /  -16.6 °C 1.2 °F /  -17.1 °C 1010.0 in /  34198.6 hPa West 8.0 mph /  12.9 km/h 8.0 mph /  12.9 km/h 94 % 0.0 in /  0 mm
18:22 2.1 °F /  -16.6 °C 1.2 °F /  -17.1 °C 1010.0 in /  34198.6 hPa WNW 8.0 mph /  12.9 km/h 12.9 mph /  20.8 km/h 94 % 0.0 in /  0 mm
18:32 2.0 °F /  -16.7 °C 1.1 °F /  -17.2 °C 1010.0 in /  34198.6 hPa West 6.4 mph /  10.3 km/h 14.5 mph /  23.3 km/h 94 % 0.0 in /  0 mm
18:37 2.0 °F /  -16.7 °C 1.1 °F /  -17.2 °C 1010.4 in /  34212.1 hPa WNW 4.8 mph /  7.7 km/h 14.5 mph /  23.3 km/h 94 % 0.0 in /  0 mm
18:42 2.0 °F /  -16.7 °C 1.1 °F /  -17.2 °C 1010.4 in /  34212.1 hPa WNW 4.8 mph /  7.7 km/h 16.1 mph /  25.9 km/h 94 % 0.0 in /  0 mm
18:52 2.0 °F /  -16.7 °C 1.1 °F /  -17.2 °C 1010.4 in /  34212.1 hPa West 6.4 mph /  10.3 km/h 12.9 mph /  20.8 km/h 94 % 0.0 in /  0 mm
18:57 2.0 °F /  -16.7 °C 1.1 °F /  -17.2 °C 1010.4 in /  34212.1 hPa WNW 8.0 mph /  12.9 km/h 12.9 mph /  20.8 km/h 94 % 0.0 in /  0 mm
19:12 2.1 °F /  -16.6 °C 1.2 °F /  -17.1 °C 1010.4 in /  34212.1 hPa West 3.2 mph /  5.1 km/h 14.5 mph /  23.3 km/h 94 % 0.0 in /  0 mm
19:17 2.0 °F /  -16.7 °C 1.1 °F /  -17.2 °C 1010.4 in /  34212.1 hPa WNW 3.2 mph /  5.1 km/h 11.3 mph /  18.2 km/h 94 % 0.0 in /  0 mm
19:32 2.0 °F /  -16.7 °C 1.1 °F /  -17.2 °C 1010.7 in /  34222.3 hPa WSW 6.4 mph /  10.3 km/h 9.7 mph /  15.6 km/h 94 % 0.0 in /  0 mm
19:47 2.1 °F /  -16.6 °C 1.2 °F /  -17.1 °C 1010.7 in /  34222.3 hPa West 11.3 mph /  18.2 km/h 14.5 mph /  23.3 km/h 94 % 0.0 in /  0 mm
19:52 2.1 °F /  -16.6 °C 1.2 °F /  -17.1 °C 1010.7 in /  34222.3 hPa West 3.2 mph /  5.1 km/h 14.5 mph /  23.3 km/h 94 % 0.0 in /  0 mm
19:57 2.1 °F /  -16.6 °C 1.2 °F /  -17.1 °C 1010.7 in /  34222.3 hPa WSW 1.6 mph /  2.6 km/h 11.3 mph /  18.2 km/h 94 % 0.0 in /  0 mm
20:02 2.1 °F /  -16.6 °C 1.2 °F /  -17.1 °C 1010.7 in /  34222.3 hPa WSW 3.2 mph /  5.1 km/h 11.3 mph /  18.2 km/h 94 % 0.0 in /  0 mm
20:17 2.1 °F /  -16.6 °C 1.2 °F /  -17.1 °C 1010.7 in /  34222.3 hPa WSW 3.2 mph /  5.1 km/h 6.4 mph /  10.3 km/h 94 % 0.0 in /  0 mm
20:22 2.1 °F /  -16.6 °C 1.2 °F /  -17.1 °C 1010.7 in /  34222.3 hPa West 4.8 mph /  7.7 km/h 6.4 mph /  10.3 km/h 94 % 0.0 in /  0 mm
20:27 2.0 °F /  -16.7 °C 1.1 °F /  -17.2 °C 1010.7 in /  34222.3 hPa WNW 3.2 mph /  5.1 km/h 6.4 mph /  10.3 km/h 94 % 0.0 in /  0 mm
20:32 2.0 °F /  -16.7 °C 1.1 °F /  -17.2 °C 1011.1 in /  34235.8 hPa WNW 1.6 mph /  2.6 km/h 6.4 mph /  10.3 km/h 94 % 0.0 in /  0 mm
20:42 2.1 °F /  -16.6 °C 1.2 °F /  -17.1 °C 1011.1 in /  34235.8 hPa WNW 4.8 mph /  7.7 km/h 6.4 mph /  10.3 km/h 94 % 0.0 in /  0 mm
20:47 2.1 °F /  -16.6 °C 1.2 °F /  -17.1 °C 1011.1 in /  34235.8 hPa West 1.6 mph /  2.6 km/h 14.5 mph /  23.3 km/h 94 % 0.0 in /  0 mm
20:57 2.1 °F /  -16.6 °C 1.2 °F /  -17.1 °C 1011.1 in /  34235.8 hPa WNW 9.7 mph /  15.6 km/h 14.5 mph /  23.3 km/h 94 % 0.0 in /  0 mm
21:02 2.1 °F /  -16.6 °C 1.2 °F /  -17.1 °C 1011.1 in /  34235.8 hPa West 8.0 mph /  12.9 km/h 14.5 mph /  23.3 km/h 94 % 0.0 in /  0 mm
21:12 2.2 °F /  -16.6 °C 1.3 °F /  -17.1 °C 1011.1 in /  34235.8 hPa West 3.2 mph /  5.1 km/h 9.7 mph /  15.6 km/h 94 % 0.0 in /  0 mm
21:17 2.2 °F /  -16.6 °C 1.3 °F /  -17.1 °C 1011.1 in /  34235.8 hPa West 6.4 mph /  10.3 km/h 8.0 mph /  12.9 km/h 94 % 0.3 in /  7.62 mm
21:27 2.3 °F /  -16.5 °C 1.4 °F /  -17 °C 1011.1 in /  34235.8 hPa WNW 6.4 mph /  10.3 km/h 9.7 mph /  15.6 km/h 94 % 0.3 in /  7.62 mm
21:32 2.4 °F /  -16.4 °C 1.5 °F /  -16.9 °C 1011.1 in /  34235.8 hPa West 1.6 mph /  2.6 km/h 9.7 mph /  15.6 km/h 94 % 0.3 in /  7.62 mm
21:42 2.5 °F /  -16.4 °C 1.6 °F /  -16.9 °C 1011.4 in /  34246 hPa Calm   9.7 mph /  15.6 km/h 94 % 0.3 in /  7.62 mm
21:47 2.5 °F /  -16.4 °C 1.6 °F /  -16.9 °C 1011.4 in /  34246 hPa WNW 3.2 mph /  5.1 km/h 8.0 mph /  12.9 km/h 94 % 0.3 in /  7.62 mm
21:57 2.6 °F /  -16.3 °C 1.7 °F /  -16.8 °C 1011.4 in /  34246 hPa West 4.8 mph /  7.7 km/h 12.9 mph /  20.8 km/h 94 % 0.3 in /  7.62 mm
22:02 2.6 °F /  -16.3 °C 1.7 °F /  -16.8 °C 1011.1 in /  34235.8 hPa NW 4.8 mph /  7.7 km/h 12.9 mph /  20.8 km/h 94 % 0.3 in /  7.62 mm
22:07 2.6 °F /  -16.3 °C 1.6 °F /  -16.9 °C 1011.1 in /  34235.8 hPa WNW 8.0 mph /  12.9 km/h 12.9 mph /  20.8 km/h 93 % 0.3 in /  7.62 mm
22:12 2.7 °F /  -16.3 °C 1.7 °F /  -16.8 °C 1011.4 in /  34246 hPa West 3.2 mph /  5.1 km/h 12.9 mph /  20.8 km/h 93 % 0.3 in /  7.62 mm
22:22 2.7 °F /  -16.3 °C 1.7 °F /  -16.8 °C 1011.1 in /  34235.8 hPa West 1.6 mph /  2.6 km/h 9.7 mph /  15.6 km/h 93 % 0.0 in /  0 mm
22:32 2.6 °F /  -16.3 °C 1.6 °F /  -16.9 °C 1011.4 in /  34246 hPa Calm   8.0 mph /  12.9 km/h 93 % 0.0 in /  0 mm
22:37 2.6 °F /  -16.3 °C 1.6 °F /  -16.9 °C 1011.4 in /  34246 hPa WNW 4.8 mph /  7.7 km/h 4.8 mph /  7.7 km/h 93 % 0.0 in /  0 mm
22:42 2.6 °F /  -16.3 °C 1.6 °F /  -16.9 °C 1011.4 in /  34246 hPa WNW 1.6 mph /  2.6 km/h 4.8 mph /  7.7 km/h 93 % 0.0 in /  0 mm
22:52 2.6 °F /  -16.3 °C 1.6 °F /  -16.9 °C 1011.4 in /  34246 hPa Calm   4.8 mph /  7.7 km/h 93 % 0.0 in /  0 mm
23:02 2.6 °F /  -16.3 °C 1.6 °F /  -16.9 °C 1011.4 in /  34246 hPa Calm   3.2 mph /  5.1 km/h 93 % 0.0 in /  0 mm
23:07 2.6 °F /  -16.3 °C 1.6 °F /  -16.9 °C 1011.4 in /  34246 hPa Calm   1.6 mph /  2.6 km/h 93 % 0.0 in /  0 mm
23:12 2.6 °F /  -16.3 °C 1.6 °F /  -16.9 °C 1011.4 in /  34246 hPa West 1.6 mph /  2.6 km/h 1.6 mph /  2.6 km/h 93 % 0.0 in /  0 mm
23:17 2.6 °F /  -16.3 °C 1.6 °F /  -16.9 °C 1011.4 in /  34246 hPa West 1.6 mph /  2.6 km/h 1.6 mph /  2.6 km/h 93 % 0.0 in /  0 mm
23:22 2.6 °F /  -16.3 °C 1.6 °F /  -16.9 °C 1011.4 in /  34246 hPa Calm   1.6 mph /  2.6 km/h 93 % 0.0 in /  0 mm
23:32 2.7 °F /  -16.3 °C 1.7 °F /  -16.8 °C 1011.1 in /  34235.8 hPa Calm   3.2 mph /  5.1 km/h 93 % 0.0 in /  0 mm
23:42 2.7 °F /  -16.3 °C 1.7 °F /  -16.8 °C 1011.4 in /  34246 hPa West 1.6 mph /  2.6 km/h 4.8 mph /  7.7 km/h 93 % 0.0 in /  0 mm
23:47 2.8 °F /  -16.2 °C 1.8 °F /  -16.8 °C 1011.4 in /  34246 hPa WNW 3.2 mph /  5.1 km/h 4.8 mph /  7.7 km/h 93 % 0.0 in /  0 mm
23:57 2.8 °F /  -16.2 °C 1.8 °F /  -16.8 °C 1011.4 in /  34246 hPa West 3.2 mph /  5.1 km/h 4.8 mph /  7.7 km/h 93 % 0.0 in /  0 mm
Meteo18
Compliments of Weather Underground - 4 mb

Script developed by  Jim McMurry - jmcmurry@mwt.net Adapted for the template by  Wim van der Kuil - Leuven-Template.eu

You find our weather info also at:

European Weather Network

Weather Underground

Equipment we use:

Weather-station
Davis Vue

Weather-program
Meteobridge

Weather-server
Raspberry PI 2 B+

Provider
1 and 1

Davis Vue

Meteobridge

Raspberry PI 2 B+

1 and 1